createdAt,value
2023-02-24T00:04:52.533Z,45.84
2023-02-24T00:09:57.683Z,46.98
2023-02-24T00:15:01.103Z,44.99
2023-02-24T00:20:07.047Z,45.55
2023-02-24T00:25:12.322Z,45.24
2023-02-24T00:30:17.596Z,44.95
2023-02-24T00:35:21.131Z,45.13
2023-02-24T00:40:26.618Z,45.28
2023-02-24T00:45:30.790Z,45.30
2023-02-24T00:50:34.304Z,45.16
2023-02-24T00:55:40.528Z,45.36
2023-02-24T01:00:47.555Z,45.36
2023-02-24T01:05:51.575Z,45.65
2023-02-24T01:11:18.665Z,45.07
2023-02-24T01:16:22.504Z,44.82
2023-02-24T01:21:26.050Z,45.72
2023-02-24T01:26:30.982Z,45.20
2023-02-24T01:31:34.571Z,44.94
2023-02-24T01:36:39.498Z,45.75
2023-02-24T01:41:46.444Z,44.35
2023-02-24T01:46:52.140Z,45.49
2023-02-24T01:52:02.117Z,45.63
2023-02-24T01:57:08.379Z,45.58
2023-02-24T02:02:12.243Z,46.12
2023-02-24T02:07:18.104Z,45.86
2023-02-24T02:12:24.316Z,44.27
2023-02-24T02:17:32.660Z,44.72
2023-02-24T02:23:06.627Z,44.78
2023-02-24T02:28:24.359Z,43.89
2023-02-24T02:34:06.405Z,44.04
2023-02-24T02:39:14.560Z,43.58
2023-02-24T02:44:22.625Z,42.81
2023-02-24T02:49:30.863Z,42.83
2023-02-24T02:54:40.109Z,43.88
2023-02-24T02:59:50.540Z,43.57
2023-02-24T03:04:58.192Z,42.95
2023-02-24T03:10:04.390Z,44.30
2023-02-24T03:15:12.940Z,43.30
2023-02-24T03:20:22.374Z,42.99
2023-02-24T03:25:29.961Z,43.35
2023-02-24T03:30:41.443Z,43.99
2023-02-24T03:35:46.936Z,43.35
2023-02-24T03:40:51.356Z,45.15
2023-02-24T03:46:01.240Z,42.29
2023-02-24T03:51:07.773Z,41.37
2023-02-24T03:56:28.646Z,40.45
2023-02-24T04:01:37.604Z,39.78
2023-02-24T04:06:45.937Z,39.67
2023-02-24T04:11:54.058Z,41.59
2023-02-24T04:17:03.053Z,40.43
2023-02-24T04:22:11.571Z,41.18
2023-02-24T04:27:16.572Z,41.16
2023-02-24T04:32:23.130Z,41.09
2023-02-24T04:37:33.792Z,41.79
2023-02-24T04:42:41.037Z,41.75
2023-02-24T04:47:49.402Z,43.40
2023-02-24T04:52:56.103Z,42.47
2023-02-24T04:58:00.333Z,42.10
2023-02-24T05:03:05.256Z,42.10
2023-02-24T05:08:11.484Z,43.77
2023-02-24T05:13:15.988Z,41.28
2023-02-24T05:18:20.306Z,41.90
2023-02-24T05:23:27.492Z,41.52
2023-02-24T05:28:31.878Z,41.50
2023-02-24T05:33:36.232Z,41.94
2023-02-24T05:38:41.093Z,42.23
2023-02-24T05:43:48.038Z,42.31
2023-02-24T05:48:51.843Z,40.59
2023-02-24T05:53:56.612Z,41.66
2023-02-24T05:59:02.836Z,40.45
2023-02-24T06:04:07.731Z,40.93
2023-02-24T06:09:14.540Z,41.88
2023-02-24T06:14:18.160Z,41.60
2023-02-24T06:19:21.870Z,41.15
2023-02-24T06:24:26.948Z,41.93
2023-02-24T06:29:31.100Z,40.68
2023-02-24T06:34:34.575Z,41.69
2023-02-24T06:39:39.676Z,40.93
2023-02-24T06:44:43.182Z,41.35
2023-02-24T06:49:47.841Z,41.24
2023-02-24T06:54:52.686Z,42.54
2023-02-24T06:59:56.139Z,41.50
2023-02-24T07:04:59.809Z,43.45
2023-02-24T07:10:05.893Z,40.36
2023-02-24T07:15:10.206Z,41.90
2023-02-24T07:20:25.168Z,41.33
2023-02-24T07:25:33.882Z,39.69
2023-02-24T07:30:39.322Z,40.66
2023-02-24T07:35:43.444Z,40.02
2023-02-24T07:40:49.909Z,41.50
2023-02-24T07:45:53.774Z,41.83
2023-02-24T07:50:59.284Z,41.89
2023-02-24T07:56:13.348Z,40.75
2023-02-24T08:01:23.340Z,40.86
2023-02-24T08:06:37.783Z,41.92
2023-02-24T08:11:42.652Z,40.69
2023-02-24T08:16:47.940Z,40.13
2023-02-24T08:21:54.396Z,40.98
2023-02-24T08:27:05.215Z,42.09
2023-02-24T08:32:10.224Z,41.16
2023-02-24T08:37:15.620Z,42.84
2023-02-24T08:42:20.987Z,39.55
2023-02-24T08:47:30.940Z,40.59
2023-02-24T08:52:35.560Z,43.08
2023-02-24T08:57:40.424Z,44.31
2023-02-24T09:02:43.826Z,44.39
2023-02-24T09:07:54.509Z,46.79
2023-02-24T09:13:01.219Z,46.73
2023-02-24T09:18:08.214Z,47.10
2023-02-24T09:23:19.985Z,47.69
2023-02-24T09:28:27.096Z,47.79
2023-02-24T09:33:38.857Z,48.85
2023-02-24T09:44:18.573Z,48.48
2023-02-24T09:49:24.912Z,49.30
2023-02-24T09:54:32.745Z,47.93
2023-02-24T09:59:50.998Z,48.04
2023-02-24T10:05:07.087Z,47.97
2023-02-24T10:10:27.906Z,49.87
2023-02-24T10:15:59.044Z,47.81
2023-02-24T10:21:10.893Z,50.62
2023-02-24T10:26:30.552Z,50.53
2023-02-24T10:31:40.297Z,48.62
2023-02-24T10:36:47.682Z,50.03
2023-02-24T10:41:57.395Z,51.18
2023-02-24T10:47:11.533Z,50.79
2023-02-24T10:52:33.255Z,49.90
2023-02-24T10:57:58.318Z,51.26
2023-02-24T11:03:10.409Z,49.80
2023-02-24T11:08:36.700Z,49.44
2023-02-24T11:13:57.867Z,53.04
2023-02-24T11:19:02.840Z,52.20
2023-02-24T11:24:07.343Z,52.00
2023-02-24T11:29:26.771Z,50.20
2023-02-24T11:34:36.169Z,50.51
2023-02-24T11:39:48.498Z,50.55
2023-02-24T11:44:54.785Z,51.31
2023-02-24T11:50:08.730Z,49.58
2023-02-24T11:55:29.619Z,50.43
2023-02-24T12:00:34.789Z,49.97
2023-02-24T12:05:42.054Z,51.14
2023-02-24T12:10:48.631Z,50.19
2023-02-24T12:15:57.267Z,52.30
2023-02-24T12:21:06.861Z,49.90
2023-02-24T12:26:17.926Z,50.38
2023-02-24T12:31:26.124Z,49.88
2023-02-24T12:36:50.451Z,51.14
2023-02-24T12:42:01.057Z,51.52
2023-02-24T12:47:07.869Z,50.51
2023-02-24T12:52:18.207Z,54.09
2023-02-24T12:57:28.256Z,54.26
2023-02-24T13:02:38.844Z,51.19
2023-02-24T13:07:51.929Z,52.45
2023-02-24T13:13:03.649Z,52.41
2023-02-24T13:18:07.196Z,50.21
2023-02-24T13:23:21.890Z,49.66
2023-02-24T13:28:27.753Z,49.76
2023-02-24T13:33:33.444Z,50.66
2023-02-24T13:38:40.480Z,52.17
2023-02-24T13:43:54.854Z,49.81
2023-02-24T13:49:04.773Z,50.19
2023-02-24T13:54:35.650Z,50.55
2023-02-24T13:59:56.140Z,52.59
2023-02-24T14:05:03.326Z,52.25
2023-02-24T14:10:19.060Z,53.41
2023-02-24T14:15:25.362Z,50.14
2023-02-24T14:20:32.056Z,50.16
2023-02-24T14:25:39.415Z,51.29
2023-02-24T14:30:42.963Z,50.15
2023-02-24T14:35:48.546Z,51.55
2023-02-24T14:40:53.495Z,49.50
2023-02-24T14:45:58.525Z,49.31
2023-02-24T14:51:04.095Z,50.00
2023-02-24T14:56:10.657Z,50.65
2023-02-24T15:01:21.950Z,48.99
2023-02-24T15:06:26.802Z,49.06
2023-02-24T15:11:32.723Z,48.58
2023-02-24T15:16:38.701Z,50.31
2023-02-24T15:21:43.212Z,50.76
2023-02-24T15:26:54.395Z,48.61
2023-02-24T15:31:59.848Z,49.82
2023-02-24T15:37:05.885Z,50.16
2023-02-24T15:42:22.038Z,50.88
2023-02-24T15:47:27.416Z,50.17
2023-02-24T15:52:30.894Z,49.48
2023-02-24T15:57:36.609Z,52.79
2023-02-24T16:02:40.437Z,51.41
2023-02-24T16:07:45.556Z,51.72
2023-02-24T16:12:52.652Z,49.75
2023-02-24T16:17:56.852Z,49.79
2023-02-24T16:23:02.333Z,51.42
2023-02-24T16:28:07.178Z,51.28
2023-02-24T16:33:13.107Z,50.33
2023-02-24T16:38:18.095Z,51.18
2023-02-24T16:43:22.973Z,51.20
2023-02-24T16:48:27.738Z,50.40
2023-02-24T16:53:31.452Z,51.06
2023-02-24T16:58:36.443Z,51.02
2023-02-24T17:03:43.925Z,49.34
2023-02-24T17:08:47.697Z,50.39
2023-02-24T17:13:52.533Z,49.83
2023-02-24T17:18:55.927Z,49.64
2023-02-24T17:23:59.427Z,50.99
2023-02-24T17:29:04.414Z,49.68
2023-02-24T17:34:07.866Z,49.10
2023-02-24T17:39:11.351Z,49.85
2023-02-24T17:44:16.286Z,50.55
2023-02-24T17:49:19.724Z,50.96
2023-02-24T17:54:23.181Z,50.27
2023-02-24T17:59:28.073Z,51.15
2023-02-24T18:04:31.863Z,50.63
2023-02-24T18:09:35.468Z,51.96
2023-02-24T18:14:40.340Z,52.03
2023-02-24T18:19:43.829Z,51.67
2023-02-24T18:24:47.317Z,51.72
2023-02-24T18:29:52.089Z,51.35
2023-02-24T18:34:55.953Z,50.08
2023-02-24T18:39:59.403Z,52.01
2023-02-24T18:45:04.469Z,51.17
2023-02-24T18:50:09.404Z,50.02
2023-02-24T18:55:12.865Z,50.95
2023-02-24T19:00:18.748Z,50.02
2023-02-24T19:05:22.229Z,50.15
2023-02-24T19:10:25.660Z,51.08
2023-02-24T19:15:30.544Z,51.89
2023-02-24T19:20:34.114Z,51.08
2023-02-24T19:25:37.730Z,49.74
2023-02-24T19:30:42.564Z,50.29
2023-02-24T19:35:46.028Z,49.53
2023-02-24T19:40:49.512Z,49.50
2023-02-24T19:45:54.360Z,48.46
2023-02-24T19:50:57.789Z,47.75
2023-02-24T19:56:01.288Z,48.70
2023-02-24T20:01:09.202Z,48.95
2023-02-24T20:06:18.302Z,49.39
2023-02-24T20:11:22.205Z,48.12
2023-02-24T20:16:31.965Z,48.65
2023-02-24T20:21:35.457Z,49.39
2023-02-24T20:26:41.035Z,48.81
2023-02-24T20:31:46.308Z,50.21
2023-02-24T20:36:49.913Z,50.34
2023-02-24T20:41:54.945Z,49.57
2023-02-24T20:46:59.738Z,51.79
2023-02-24T20:52:03.193Z,48.95
2023-02-24T20:57:08.861Z,50.84
2023-02-24T21:02:13.761Z,49.81
2023-02-24T21:07:17.273Z,48.63
2023-02-24T21:12:20.750Z,49.25
2023-02-24T21:17:25.571Z,49.38
2023-02-24T21:22:31.109Z,50.04
2023-02-24T21:27:34.717Z,49.88
2023-02-24T21:32:39.598Z,48.75
2023-02-24T21:37:43.221Z,51.14
2023-02-24T21:42:47.547Z,50.07
2023-02-24T21:47:52.434Z,51.59
2023-02-24T21:52:55.890Z,50.88
2023-02-24T21:57:59.476Z,51.69
2023-02-24T22:03:04.431Z,48.67
2023-02-24T22:08:08.215Z,53.50
2023-02-24T22:13:11.645Z,50.23
2023-02-24T22:18:16.670Z,50.30
2023-02-24T22:23:20.134Z,51.48
2023-02-24T22:28:23.537Z,49.51
2023-02-24T22:33:29.040Z,50.98
2023-02-24T22:38:32.997Z,49.70
2023-02-24T22:43:36.630Z,49.20
2023-02-24T22:48:41.716Z,50.84
2023-02-24T22:53:46.594Z,50.05
2023-02-24T22:58:50.835Z,50.39
2023-02-24T23:03:56.131Z,50.69
2023-02-24T23:09:00.799Z,48.94
2023-02-24T23:14:06.774Z,50.11
2023-02-24T23:19:16.067Z,50.30
2023-02-24T23:24:21.576Z,50.56
2023-02-24T23:29:26.506Z,50.75
2023-02-24T23:34:31.498Z,51.01
2023-02-24T23:39:35.023Z,51.30
2023-02-24T23:44:38.936Z,54.08
2023-02-24T23:49:48.365Z,50.16
2023-02-24T23:54:53.032Z,49.63
2023-02-24T23:59:56.499Z,51.44
